createdAt,value
2017-05-24T00:00:17.441Z,16.48
2017-05-24T00:01:17.407Z,16.6
2017-05-24T00:02:17.681Z,16.63
2017-05-24T00:03:17.375Z,16.74
2017-05-24T00:04:17.369Z,16.72
2017-05-24T00:05:17.080Z,16.69
2017-05-24T00:06:17.643Z,16.58
2017-05-24T00:07:17.342Z,16.58
2017-05-24T00:08:17.590Z,16.64
2017-05-24T00:09:17.407Z,16.64
2017-05-24T00:10:16.962Z,16.56
2017-05-24T00:11:17.631Z,16.72
2017-05-24T00:12:17.216Z,16.71
2017-05-24T00:13:17.612Z,16.58
2017-05-24T00:14:16.883Z,16.74
2017-05-24T00:15:17.483Z,16.61
2017-05-24T00:16:17.158Z,16.71
2017-05-24T00:17:17.159Z,16.72
2017-05-24T00:18:17.431Z,16.74
2017-05-24T00:19:17.174Z,16.66
2017-05-24T00:20:17.400Z,16.72
2017-05-24T00:21:17.070Z,16.74
2017-05-24T00:22:17.363Z,16.72
2017-05-24T00:23:17.051Z,16.69
2017-05-24T00:24:17.340Z,16.66
2017-05-24T00:25:17.103Z,16.63
2017-05-24T00:26:17.300Z,16.54
2017-05-24T00:27:17.063Z,16.46
2017-05-24T00:28:16.960Z,16.45
2017-05-24T00:29:17.261Z,16.48
2017-05-24T00:30:16.927Z,16.53
2017-05-24T00:31:17.229Z,16.58
2017-05-24T00:32:17.195Z,16.56
2017-05-24T00:33:17.192Z,16.58
2017-05-24T00:34:17.163Z,16.58
2017-05-24T00:35:17.241Z,16.53
2017-05-24T00:36:16.898Z,16.53
2017-05-24T00:37:16.604Z,16.53
2017-05-24T00:38:17.148Z,16.48
2017-05-24T00:39:16.876Z,16.45
2017-05-24T00:40:17.181Z,16.43
2017-05-24T00:41:17.083Z,16.46
2017-05-24T00:42:17.033Z,16.43
2017-05-24T00:43:17.070Z,16.34
2017-05-24T00:44:17.012Z,16.27
2017-05-24T00:45:17.032Z,16.26
2017-05-24T00:46:16.654Z,16.39
2017-05-24T00:47:16.992Z,16.34
2017-05-24T00:48:16.942Z,16.32
2017-05-24T00:49:17.015Z,16.21
2017-05-24T00:50:16.899Z,16.21
2017-05-24T00:51:16.981Z,16.27
2017-05-24T00:52:16.850Z,16.23
2017-05-24T00:53:16.896Z,16.17
2017-05-24T00:54:16.537Z,16.28
2017-05-24T00:55:16.547Z,16.12
2017-05-24T00:56:16.480Z,16.17
2017-05-24T00:57:16.470Z,16.21
2017-05-24T00:58:16.469Z,16.31
2017-05-24T00:59:16.434Z,16.31
2017-05-24T01:00:16.775Z,16.35
2017-05-24T01:01:16.702Z,16.35
2017-05-24T01:02:16.754Z,16.34
2017-05-24T01:03:16.683Z,16.35
2017-05-24T01:04:16.054Z,16.34
2017-05-24T01:05:16.022Z,16.26
2017-05-24T01:06:16.011Z,16.26
2017-05-24T01:07:16.613Z,16.17
2017-05-24T01:08:16.055Z,16.17
2017-05-24T01:09:16.573Z,16.15
2017-05-24T01:10:16.253Z,16.17
2017-05-24T01:11:16.543Z,16.23
2017-05-24T01:12:15.912Z,16.17
2017-05-24T01:13:15.891Z,16.28
2017-05-24T01:14:16.490Z,16.23
2017-05-24T01:15:16.171Z,16.17
2017-05-24T01:16:16.459Z,16.2
2017-05-24T01:17:16.132Z,16.2
2017-05-24T01:18:16.112Z,16.26
2017-05-24T01:19:16.093Z,16.27
2017-05-24T01:20:16.078Z,16.17
2017-05-24T01:21:16.408Z,16.34
2017-05-24T01:22:16.046Z,16.34
2017-05-24T01:23:16.336Z,16.17
2017-05-24T01:24:16.000Z,16.17
2017-05-24T01:25:15.990Z,16.23
2017-05-24T01:26:15.975Z,16.26
2017-05-24T01:27:16.289Z,16.21
2017-05-24T01:28:15.700Z,16.17
2017-05-24T01:29:15.931Z,16.2
2017-05-24T01:30:15.907Z,16.08
2017-05-24T01:31:16.206Z,16.05
2017-05-24T01:32:16.178Z,16.02
2017-05-24T01:33:16.162Z,16.02
2017-05-24T01:34:16.152Z,16.04
2017-05-24T01:35:15.820Z,16.13
2017-05-24T01:36:15.810Z,16.16
2017-05-24T01:37:15.494Z,16.07
2017-05-24T01:38:15.777Z,16.1
2017-05-24T01:39:15.811Z,16.05
2017-05-24T01:40:16.039Z,16.04
2017-05-24T01:41:15.722Z,16.05
2017-05-24T01:42:16.010Z,15.92
2017-05-24T01:43:15.689Z,16.01
2017-05-24T01:44:15.990Z,16.05
2017-05-24T01:45:15.964Z,16.02
2017-05-24T01:46:15.943Z,16.04
2017-05-24T01:47:15.921Z,15.97
2017-05-24T01:48:15.913Z,15.92
2017-05-24T01:49:15.911Z,15.97
2017-05-24T01:50:15.880Z,15.95
2017-05-24T01:51:15.860Z,15.97
2017-05-24T01:52:15.842Z,15.98
2017-05-24T01:53:15.216Z,15.95
2017-05-24T01:54:15.830Z,15.97
2017-05-24T01:55:15.798Z,15.92
2017-05-24T01:56:15.772Z,15.98
2017-05-24T01:57:15.455Z,16
2017-05-24T01:58:15.436Z,15.98
2017-05-24T01:59:15.432Z,15.95
2017-05-24T02:00:15.391Z,15.9
2017-05-24T02:01:15.701Z,15.97
2017-05-24T02:02:15.053Z,15.92
2017-05-24T02:03:15.052Z,15.95
2017-05-24T02:04:15.655Z,16.01
2017-05-24T02:05:15.312Z,15.89
2017-05-24T02:06:15.617Z,16.01
2017-05-24T02:07:14.992Z,15.82
2017-05-24T02:08:15.567Z,15.71
2017-05-24T02:09:14.940Z,15.75
2017-05-24T02:10:15.612Z,15.67
2017-05-24T02:11:15.524Z,15.65
2017-05-24T02:12:15.191Z,15.67
2017-05-24T02:13:15.194Z,15.77
2017-05-24T02:14:15.469Z,15.72
2017-05-24T02:15:15.142Z,15.65
2017-05-24T02:16:15.132Z,15.6
2017-05-24T02:17:15.411Z,15.64
2017-05-24T02:18:15.100Z,15.62
2017-05-24T02:19:15.393Z,15.64
2017-05-24T02:20:14.770Z,15.58
2017-05-24T02:21:15.342Z,15.68
2017-05-24T02:22:15.051Z,15.57
2017-05-24T02:23:15.003Z,15.64
2017-05-24T02:24:15.002Z,15.64
2017-05-24T02:25:15.282Z,15.61
2017-05-24T02:26:15.051Z,15.64
2017-05-24T02:27:15.250Z,15.57
2017-05-24T02:28:15.221Z,15.62
2017-05-24T02:29:15.224Z,15.65
2017-05-24T02:30:15.199Z,15.69
2017-05-24T02:31:14.887Z,15.64
2017-05-24T02:32:14.863Z,15.62
2017-05-24T02:33:14.843Z,15.62
2017-05-24T02:34:14.822Z,15.69
2017-05-24T02:35:15.114Z,15.69
2017-05-24T02:36:14.546Z,15.71
2017-05-24T02:37:15.085Z,15.64
2017-05-24T02:38:14.747Z,15.64
2017-05-24T02:39:14.729Z,15.53
2017-05-24T02:40:14.713Z,15.53
2017-05-24T02:41:14.699Z,15.52
2017-05-24T02:42:14.970Z,15.6
2017-05-24T02:43:14.743Z,15.6
2017-05-24T02:44:14.650Z,15.76
2017-05-24T02:45:14.937Z,15.75
2017-05-24T02:46:14.624Z,15.75
2017-05-24T02:47:14.597Z,15.69
2017-05-24T02:48:14.582Z,15.67
2017-05-24T02:49:14.250Z,15.75
2017-05-24T02:50:14.864Z,15.69
2017-05-24T02:51:14.534Z,15.68
2017-05-24T02:52:14.249Z,15.68
2017-05-24T02:53:14.493Z,15.6
2017-05-24T02:54:14.787Z,15.68
2017-05-24T02:55:14.554Z,15.69
2017-05-24T02:56:14.741Z,15.69
2017-05-24T02:57:14.727Z,15.75
2017-05-24T02:58:14.722Z,15.58
2017-05-24T02:59:14.702Z,15.61
2017-05-24T03:00:14.363Z,15.65
2017-05-24T03:01:14.043Z,15.71
2017-05-24T03:02:14.646Z,15.68
2017-05-24T03:03:14.632Z,15.75
2017-05-24T03:04:14.612Z,15.75
2017-05-24T03:05:14.593Z,15.79
2017-05-24T03:06:14.264Z,15.69
2017-05-24T03:07:14.559Z,15.71
2017-05-24T03:08:14.542Z,15.76
2017-05-24T03:09:14.524Z,15.76
2017-05-24T03:10:14.491Z,15.67
2017-05-24T03:11:14.186Z,15.76
2017-05-24T03:12:14.158Z,15.72
2017-05-24T03:13:14.464Z,15.77
2017-05-24T03:14:14.443Z,15.76
2017-05-24T03:15:14.152Z,15.79
2017-05-24T03:16:14.099Z,15.76
2017-05-24T03:17:14.071Z,15.76
2017-05-24T03:18:14.363Z,15.79
2017-05-24T03:19:13.732Z,15.8
2017-05-24T03:20:14.333Z,15.77
2017-05-24T03:21:14.016Z,15.75
2017-05-24T03:22:14.002Z,15.75
2017-05-24T03:23:13.663Z,15.68
2017-05-24T03:24:14.268Z,15.65
2017-05-24T03:25:13.941Z,15.65
2017-05-24T03:26:13.925Z,15.68
2017-05-24T03:27:14.205Z,15.75
2017-05-24T03:28:14.201Z,15.79
2017-05-24T03:29:13.870Z,15.85
2017-05-24T03:30:14.158Z,15.92
2017-05-24T03:31:14.139Z,15.89
2017-05-24T03:32:13.522Z,15.89
2017-05-24T03:33:14.111Z,15.97
2017-05-24T03:34:13.782Z,16.01
2017-05-24T03:35:13.770Z,15.98
2017-05-24T03:36:14.057Z,15.89
2017-05-24T03:37:14.033Z,15.92
2017-05-24T03:38:13.713Z,15.76
2017-05-24T03:39:14.004Z,15.72
2017-05-24T03:40:13.693Z,15.76
2017-05-24T03:41:13.664Z,15.77
2017-05-24T03:42:13.954Z,15.89
2017-05-24T03:43:13.930Z,15.87
2017-05-24T03:44:13.919Z,15.83
2017-05-24T03:45:13.912Z,15.97
2017-05-24T03:46:13.583Z,15.94
2017-05-24T03:47:13.860Z,15.95
2017-05-24T03:48:13.873Z,15.95
2017-05-24T03:49:13.534Z,15.9
2017-05-24T03:50:13.252Z,15.97
2017-05-24T03:51:13.492Z,16
2017-05-24T03:52:13.882Z,15.95
2017-05-24T03:53:13.764Z,15.89
2017-05-24T03:54:13.754Z,15.95
2017-05-24T03:55:13.116Z,15.95
2017-05-24T03:56:13.502Z,15.9
2017-05-24T03:57:13.412Z,15.89
2017-05-24T03:58:13.481Z,15.9
2017-05-24T03:59:13.364Z,15.95
2017-05-24T04:00:13.345Z,15.95
2017-05-24T04:01:13.326Z,15.95
2017-05-24T04:02:13.701Z,15.94
2017-05-24T04:03:13.297Z,15.94
2017-05-24T04:04:13.295Z,15.98
2017-05-24T04:05:13.554Z,16
2017-05-24T04:06:13.303Z,15.98
2017-05-24T04:07:13.227Z,15.89
2017-05-24T04:08:13.298Z,16
2017-05-24T04:09:13.494Z,15.95
2017-05-24T04:10:13.473Z,15.92
2017-05-24T04:11:13.514Z,15.95
2017-05-24T04:12:13.143Z,15.95
2017-05-24T04:13:13.134Z,16.01
2017-05-24T04:14:13.423Z,15.97
2017-05-24T04:15:13.494Z,15.98
2017-05-24T04:16:13.085Z,15.95
2017-05-24T04:17:12.752Z,15.97
2017-05-24T04:18:13.075Z,15.98
2017-05-24T04:19:13.014Z,15.9
2017-05-24T04:20:13.393Z,15.92
2017-05-24T04:21:13.484Z,15.86
2017-05-24T04:22:13.022Z,15.89
2017-05-24T04:23:13.283Z,15.9
2017-05-24T04:24:12.969Z,15.9
2017-05-24T04:25:13.082Z,15.89
2017-05-24T04:26:13.344Z,15.89
2017-05-24T04:27:13.292Z,15.83
2017-05-24T04:28:12.935Z,15.79
2017-05-24T04:29:12.902Z,15.83
2017-05-24T04:30:12.913Z,15.76
2017-05-24T04:31:13.220Z,15.85
2017-05-24T04:32:13.112Z,15.92
2017-05-24T04:33:12.467Z,15.87
2017-05-24T04:34:13.095Z,15.77
2017-05-24T04:35:13.173Z,15.87
2017-05-24T04:36:12.423Z,15.89
2017-05-24T04:37:13.049Z,15.98
2017-05-24T04:38:13.042Z,15.95
2017-05-24T04:39:12.377Z,15.95
2017-05-24T04:40:12.963Z,16.02
2017-05-24T04:41:12.632Z,16.05
2017-05-24T04:42:12.320Z,15.98
2017-05-24T04:43:12.972Z,16.1
2017-05-24T04:44:12.593Z,16.12
2017-05-24T04:45:12.933Z,16.2
2017-05-24T04:46:12.560Z,16.17
2017-05-24T04:47:12.885Z,16.16
2017-05-24T04:48:12.216Z,16.24
2017-05-24T04:49:12.523Z,16.17
2017-05-24T04:50:12.183Z,16.1
2017-05-24T04:51:12.943Z,16.15
2017-05-24T04:52:12.761Z,16.2
2017-05-24T04:53:12.136Z,16.21
2017-05-24T04:54:12.423Z,16.17
2017-05-24T04:55:12.748Z,16.15
2017-05-24T04:56:12.736Z,16.24
2017-05-24T04:57:12.685Z,16.27
2017-05-24T04:58:12.672Z,16.23
2017-05-24T04:59:12.654Z,16.28
2017-05-24T05:00:12.005Z,16.28
2017-05-24T05:01:12.303Z,16.27
2017-05-24T05:02:11.987Z,16.32
2017-05-24T05:03:12.273Z,16.35
2017-05-24T05:04:12.250Z,16.38
2017-05-24T05:05:11.941Z,16.34
2017-05-24T05:06:12.242Z,16.32
2017-05-24T05:07:12.200Z,16.43
2017-05-24T05:08:12.194Z,16.48
2017-05-24T05:09:12.177Z,16.5
2017-05-24T05:10:12.163Z,16.58
2017-05-24T05:11:12.163Z,16.6
2017-05-24T05:12:12.124Z,16.6
2017-05-24T05:13:12.414Z,16.69
2017-05-24T05:14:12.104Z,16.68
2017-05-24T05:15:12.076Z,16.63
2017-05-24T05:16:12.368Z,16.74
2017-05-24T05:17:12.350Z,16.74
2017-05-24T05:18:12.383Z,16.76
2017-05-24T05:19:12.307Z,16.69
2017-05-24T05:20:12.309Z,16.72
2017-05-24T05:21:11.664Z,16.64
2017-05-24T05:22:12.266Z,16.68
2017-05-24T05:23:12.271Z,16.81
2017-05-24T05:24:12.234Z,16.78
2017-05-24T05:25:12.215Z,16.85
2017-05-24T05:26:11.893Z,16.93
2017-05-24T05:27:12.194Z,16.87
2017-05-24T05:28:12.176Z,16.87
2017-05-24T05:29:11.545Z,16.89
2017-05-24T05:30:12.142Z,16.9
2017-05-24T05:31:12.122Z,16.91
2017-05-24T05:32:12.098Z,16.91
2017-05-24T05:33:12.141Z,17.01
2017-05-24T05:34:11.757Z,17.09
2017-05-24T05:35:12.092Z,17.19
2017-05-24T05:36:12.043Z,17.18
2017-05-24T05:37:12.096Z,17.24
2017-05-24T05:38:12.011Z,17.3
2017-05-24T05:39:12.008Z,17.29
2017-05-24T05:40:12.015Z,17.16
2017-05-24T05:41:11.660Z,17.31
2017-05-24T05:42:11.942Z,17.3
2017-05-24T05:43:11.331Z,17.33
2017-05-24T05:44:11.915Z,17.44
2017-05-24T05:45:11.595Z,17.44
2017-05-24T05:46:11.622Z,17.39
2017-05-24T05:47:11.563Z,17.46
2017-05-24T05:48:11.856Z,17.44
2017-05-24T05:49:11.869Z,17.55
2017-05-24T05:50:11.558Z,17.56
2017-05-24T05:51:11.805Z,17.62
2017-05-24T05:52:11.171Z,17.7
2017-05-24T05:53:11.773Z,17.68
2017-05-24T05:54:11.765Z,17.75
2017-05-24T05:55:11.731Z,17.68
2017-05-24T05:56:11.428Z,17.67
2017-05-24T05:57:11.109Z,17.64
2017-05-24T05:58:11.687Z,17.49
2017-05-24T05:59:11.675Z,17.55
2017-05-24T06:00:11.363Z,17.65
2017-05-24T06:01:11.641Z,17.71
2017-05-24T06:02:11.399Z,17.77
2017-05-24T06:03:11.611Z,17.87
2017-05-24T06:04:11.609Z,17.89
2017-05-24T06:05:11.344Z,17.92
2017-05-24T06:06:11.251Z,17.98
2017-05-24T06:07:11.255Z,18.04
2017-05-24T06:08:11.543Z,18.11
2017-05-24T06:09:11.274Z,18.11
2017-05-24T06:10:10.905Z,18.23
2017-05-24T06:11:11.272Z,18.27
2017-05-24T06:12:11.178Z,18.33
2017-05-24T06:13:11.175Z,18.4
2017-05-24T06:14:10.854Z,18.45
2017-05-24T06:15:11.122Z,18.35
2017-05-24T06:16:11.164Z,18.37
2017-05-24T06:17:11.101Z,18.5
2017-05-24T06:18:11.172Z,18.52
2017-05-24T06:19:11.373Z,18.42
2017-05-24T06:20:11.382Z,18.44
2017-05-24T06:21:11.372Z,18.44
2017-05-24T06:22:11.052Z,18.56
2017-05-24T06:23:11.335Z,18.52
2017-05-24T06:24:11.001Z,18.6
2017-05-24T06:25:11.284Z,18.51
2017-05-24T06:26:11.293Z,18.62
2017-05-24T06:27:11.284Z,18.62
2017-05-24T06:28:10.625Z,18.55
2017-05-24T06:29:10.933Z,18.27
2017-05-24T06:30:11.231Z,18.14
2017-05-24T06:31:11.213Z,18.12
2017-05-24T06:32:11.184Z,18.22
2017-05-24T06:33:11.191Z,18.3
2017-05-24T06:34:10.859Z,18.27
2017-05-24T06:35:11.311Z,18.38
2017-05-24T06:36:11.132Z,18.38
2017-05-24T06:37:11.192Z,18.4
2017-05-24T06:38:10.909Z,18.26
2017-05-24T06:39:11.099Z,18.26
2017-05-24T06:40:10.463Z,18.2
2017-05-24T06:41:10.453Z,18.12
2017-05-24T06:42:10.740Z,18.07
2017-05-24T06:43:10.724Z,17.98
2017-05-24T06:44:10.768Z,18.07
2017-05-24T06:45:10.686Z,18.08
2017-05-24T06:46:10.374Z,18.1
2017-05-24T06:47:10.363Z,18.05
2017-05-24T06:48:11.031Z,18.01
2017-05-24T06:49:10.323Z,18.1
2017-05-24T06:50:10.932Z,18.14
2017-05-24T06:51:11.011Z,18.1
2017-05-24T06:52:10.998Z,18.04
2017-05-24T06:53:10.587Z,17.95
2017-05-24T06:54:10.269Z,17.92
2017-05-24T06:55:10.894Z,18.04
2017-05-24T06:56:10.960Z,18.04
2017-05-24T06:57:10.815Z,17.98
2017-05-24T06:58:10.851Z,17.96
2017-05-24T06:59:10.906Z,17.89
2017-05-24T07:00:10.770Z,17.89
2017-05-24T07:01:10.450Z,17.85
2017-05-24T07:02:10.751Z,17.89
2017-05-24T07:03:10.422Z,17.86
2017-05-24T07:04:10.730Z,17.92
2017-05-24T07:05:10.086Z,17.9
2017-05-24T07:06:10.379Z,17.92
2017-05-24T07:07:10.422Z,18
2017-05-24T07:08:10.361Z,18.14
2017-05-24T07:09:10.778Z,18.25
2017-05-24T07:10:10.632Z,18.29
2017-05-24T07:11:10.654Z,18.38
2017-05-24T07:12:10.275Z,18.33
2017-05-24T07:13:10.631Z,18.38
2017-05-24T07:14:10.570Z,18.48
2017-05-24T07:15:10.539Z,18.38
2017-05-24T07:16:10.524Z,18.47
2017-05-24T07:17:09.916Z,18.4
2017-05-24T07:18:10.490Z,18.44
2017-05-24T07:19:09.871Z,18.48
2017-05-24T07:20:10.170Z,18.5
2017-05-24T07:21:10.452Z,18.41
2017-05-24T07:22:10.161Z,18.38
2017-05-24T07:23:10.129Z,18.42
2017-05-24T07:24:10.105Z,18.35
2017-05-24T07:25:10.110Z,18.5
2017-05-24T07:26:09.771Z,18.48
2017-05-24T07:27:10.060Z,18.44
2017-05-24T07:28:10.342Z,18.48
2017-05-24T07:29:10.031Z,18.51
2017-05-24T07:30:10.008Z,18.5
2017-05-24T07:31:10.013Z,18.59
2017-05-24T07:32:09.694Z,18.48
2017-05-24T07:33:09.976Z,18.55
2017-05-24T07:34:09.952Z,18.59
2017-05-24T07:35:09.950Z,18.62
2017-05-24T07:36:09.932Z,18.65
2017-05-24T07:37:10.212Z,18.66
2017-05-24T07:38:10.219Z,18.47
2017-05-24T07:39:10.189Z,18.52
2017-05-24T07:40:09.861Z,18.44
2017-05-24T07:41:09.847Z,18.38
2017-05-24T07:42:09.860Z,18.44
2017-05-24T07:43:09.822Z,18.55
2017-05-24T07:44:10.124Z,18.58
2017-05-24T07:45:09.800Z,18.63
2017-05-24T07:46:09.781Z,18.84
2017-05-24T07:47:10.058Z,18.82
2017-05-24T07:48:10.054Z,18.85
2017-05-24T07:49:09.740Z,18.96
2017-05-24T07:50:09.742Z,19.07
2017-05-24T07:51:10.027Z,19.04
2017-05-24T07:52:10.009Z,19.18
2017-05-24T07:53:09.980Z,19.19
2017-05-24T07:54:09.960Z,19.18
2017-05-24T07:55:09.960Z,19.28
2017-05-24T07:56:09.950Z,19.53
2017-05-24T07:57:09.931Z,19.73
2017-05-24T07:58:09.373Z,19.88
2017-05-24T07:59:09.910Z,20.04
2017-05-24T08:00:09.608Z,19.96
2017-05-24T08:01:09.870Z,19.8
2017-05-24T08:02:09.581Z,19.41
2017-05-24T08:03:09.544Z,19.41
2017-05-24T08:04:09.549Z,19.53
2017-05-24T08:05:09.529Z,19.7
2017-05-24T08:06:09.518Z,19.78
2017-05-24T08:07:09.500Z,19.81
2017-05-24T08:08:09.233Z,19.8
2017-05-24T08:09:09.777Z,19.81
2017-05-24T08:10:09.441Z,19.77
2017-05-24T08:11:09.756Z,19.78
2017-05-24T08:12:09.745Z,19.69
2017-05-24T08:13:09.734Z,19.63
2017-05-24T08:14:09.776Z,19.55
2017-05-24T08:15:09.685Z,19.63
2017-05-24T08:16:09.370Z,19.56
2017-05-24T08:17:09.673Z,19.49
2017-05-24T08:18:09.661Z,19.58
2017-05-24T08:19:09.328Z,19.76
2017-05-24T08:20:09.737Z,19.85
2017-05-24T08:21:09.296Z,19.92
2017-05-24T08:22:09.710Z,19.99
2017-05-24T08:23:09.360Z,20.17
2017-05-24T08:24:09.571Z,20.31
2017-05-24T08:25:09.251Z,20.43
2017-05-24T08:26:09.630Z,20.49
2017-05-24T08:27:09.290Z,20.55
2017-05-24T08:28:09.231Z,20.57
2017-05-24T08:29:09.541Z,20.7
2017-05-24T08:30:09.262Z,20.82
2017-05-24T08:31:09.186Z,20.73
2017-05-24T08:32:09.462Z,20.72
2017-05-24T08:33:09.242Z,20.51
2017-05-24T08:34:09.133Z,20.35
2017-05-24T08:35:09.535Z,20.52
2017-05-24T08:36:08.848Z,20.51
2017-05-24T08:37:09.191Z,20.54
2017-05-24T08:38:09.121Z,20.63
2017-05-24T08:39:09.121Z,20.72
2017-05-24T08:40:09.411Z,20.82
2017-05-24T08:41:09.465Z,20.76
2017-05-24T08:42:09.376Z,20.91
2017-05-24T08:43:09.043Z,20.91
2017-05-24T08:44:09.379Z,20.47
2017-05-24T08:45:09.358Z,20.47
2017-05-24T08:46:09.300Z,20.36
2017-05-24T08:47:09.306Z,20.31
2017-05-24T08:48:09.271Z,20.33
2017-05-24T08:49:09.264Z,20.31
2017-05-24T08:50:09.237Z,20.35
2017-05-24T08:51:08.918Z,20.25
2017-05-24T08:52:09.238Z,20.17
2017-05-24T08:53:09.200Z,19.99
2017-05-24T08:54:09.190Z,20.11
2017-05-24T08:55:08.882Z,20.2
2017-05-24T08:56:08.551Z,20.22
2017-05-24T08:57:08.590Z,20.26
2017-05-24T08:58:08.823Z,20.25
2017-05-24T08:59:09.121Z,20.25
2017-05-24T09:00:09.116Z,20.22
2017-05-24T09:01:08.516Z,20.16
2017-05-24T09:02:08.481Z,19.96
2017-05-24T09:03:09.062Z,19.96
2017-05-24T09:04:09.049Z,19.95
2017-05-24T09:05:09.050Z,19.95
2017-05-24T09:06:09.040Z,20.01
2017-05-24T09:07:08.722Z,20.13
2017-05-24T09:08:08.691Z,20.16
2017-05-24T09:09:08.685Z,20.22
2017-05-24T09:10:08.693Z,20.4
2017-05-24T09:11:08.673Z,20.44
2017-05-24T09:12:08.939Z,20.4
2017-05-24T09:13:08.942Z,20.41
2017-05-24T09:14:08.925Z,20.52
2017-05-24T09:15:08.912Z,20.43
2017-05-24T09:16:08.901Z,20.4
2017-05-24T09:17:08.569Z,20.33
2017-05-24T09:18:08.579Z,20.41
2017-05-24T09:19:08.548Z,20.51
2017-05-24T09:20:08.861Z,20.74
2017-05-24T09:21:08.550Z,20.73
2017-05-24T09:22:08.509Z,20.94
2017-05-24T09:23:08.810Z,21.04
2017-05-24T09:24:08.797Z,21.24
2017-05-24T09:25:08.483Z,21.13
2017-05-24T09:26:08.461Z,21.25
2017-05-24T09:27:08.461Z,21.41
2017-05-24T09:28:08.752Z,21.65
2017-05-24T09:29:08.442Z,21.83
2017-05-24T09:30:08.743Z,21.95
2017-05-24T09:31:08.725Z,21.81
2017-05-24T09:32:08.399Z,22.02
2017-05-24T09:33:08.083Z,22.12
2017-05-24T09:34:08.702Z,22.25
2017-05-24T09:35:08.681Z,22.37
2017-05-24T09:36:08.664Z,22.29
2017-05-24T09:37:08.348Z,22.45
2017-05-24T09:38:08.639Z,22.4
2017-05-24T09:39:08.336Z,22.51
2017-05-24T09:40:08.309Z,22.37
2017-05-24T09:41:08.310Z,22.12
2017-05-24T09:42:08.600Z,22.08
2017-05-24T09:43:08.606Z,22.11
2017-05-24T09:44:08.604Z,22.11
2017-05-24T09:45:08.582Z,22
2017-05-24T09:46:08.253Z,22.02
2017-05-24T09:47:08.603Z,21.96
2017-05-24T09:48:08.540Z,21.96
2017-05-24T09:49:08.732Z,21.76
2017-05-24T09:50:08.519Z,21.66
2017-05-24T09:51:08.211Z,21.59
2017-05-24T09:52:08.501Z,21.68
2017-05-24T09:53:08.500Z,21.65
2017-05-24T09:54:08.491Z,21.77
2017-05-24T09:55:08.235Z,21.37
2017-05-24T09:56:08.135Z,21.25
2017-05-24T09:57:08.443Z,21.44
2017-05-24T09:58:08.133Z,21.39
2017-05-24T09:59:08.113Z,21.59
2017-05-24T10:00:08.409Z,21.49
2017-05-24T10:01:08.085Z,21.5
2017-05-24T10:02:08.071Z,21.59
2017-05-24T10:03:08.064Z,21.54
2017-05-24T10:04:08.353Z,21.7
2017-05-24T10:05:08.350Z,21.79
2017-05-24T10:06:07.722Z,21.84
2017-05-24T10:07:08.322Z,22.08
2017-05-24T10:08:08.010Z,22.14
2017-05-24T10:09:08.005Z,22.2
2017-05-24T10:10:07.985Z,22.36
2017-05-24T10:11:08.277Z,22.43
2017-05-24T10:12:07.951Z,22.57
2017-05-24T10:13:07.961Z,22.62
2017-05-24T10:14:07.950Z,22.74
2017-05-24T10:15:08.239Z,22.69
2017-05-24T10:16:08.215Z,22.51
2017-05-24T10:17:07.904Z,22.67
2017-05-24T10:18:07.898Z,22.54
2017-05-24T10:19:08.190Z,22.4
2017-05-24T10:20:07.880Z,22.43
2017-05-24T10:21:07.863Z,22.35
2017-05-24T10:22:08.161Z,22.42
2017-05-24T10:23:07.841Z,22.39
2017-05-24T10:24:07.562Z,22.48
2017-05-24T10:25:08.119Z,22.5
2017-05-24T10:26:08.113Z,22.51
2017-05-24T10:27:08.119Z,22.42
2017-05-24T10:28:07.829Z,22.4
2017-05-24T10:29:07.772Z,22.51
2017-05-24T10:30:08.080Z,22.57
2017-05-24T10:31:07.753Z,22.65
2017-05-24T10:32:08.154Z,22.36
2017-05-24T10:33:07.733Z,22.32
2017-05-24T10:34:08.026Z,22.35
2017-05-24T10:35:08.008Z,22.4
2017-05-24T10:36:08.032Z,22.42
2017-05-24T10:37:07.992Z,22.55
2017-05-24T10:38:07.999Z,22.76
2017-05-24T10:39:07.673Z,22.97
2017-05-24T10:40:08.008Z,23.06
2017-05-24T10:41:07.960Z,23.04
2017-05-24T10:42:07.424Z,23.04
2017-05-24T10:43:07.931Z,22.91
2017-05-24T10:44:07.973Z,22.94
2017-05-24T10:45:07.910Z,23.04
2017-05-24T10:46:07.611Z,23.13
2017-05-24T10:47:07.284Z,22.97
2017-05-24T10:48:07.326Z,23.06
2017-05-24T10:49:07.559Z,23.25
2017-05-24T10:50:07.850Z,23.33
2017-05-24T10:51:07.615Z,23.35
2017-05-24T10:52:07.530Z,23.32
2017-05-24T10:53:07.532Z,23.47
2017-05-24T10:54:07.530Z,23.52
2017-05-24T10:55:07.811Z,23.55
2017-05-24T10:56:07.789Z,23.54
2017-05-24T10:57:07.488Z,23.44
2017-05-24T10:58:07.489Z,23.33
2017-05-24T10:59:07.267Z,23.27
2017-05-24T11:00:07.444Z,23.27
2017-05-24T11:01:07.437Z,23.07
2017-05-24T11:02:07.441Z,23.12
2017-05-24T11:03:07.741Z,23.25
2017-05-24T11:04:07.712Z,23.28
2017-05-24T11:05:07.400Z,23.47
2017-05-24T11:06:07.395Z,23.24
2017-05-24T11:07:07.460Z,23.28
2017-05-24T11:08:07.685Z,23.63
2017-05-24T11:09:07.477Z,23.72
2017-05-24T11:10:07.424Z,23.89
2017-05-24T11:11:07.445Z,23.96
2017-05-24T11:12:07.333Z,24.06
2017-05-24T11:13:07.649Z,24.09
2017-05-24T11:14:07.325Z,24.06
2017-05-24T11:15:07.598Z,24
2017-05-24T11:16:07.619Z,24.06
2017-05-24T11:17:07.593Z,24.09
2017-05-24T11:18:07.345Z,24.27
2017-05-24T11:19:07.281Z,24.34
2017-05-24T11:20:07.561Z,24.39
2017-05-24T11:21:07.548Z,24.47
2017-05-24T11:22:06.930Z,24.55
2017-05-24T11:23:07.554Z,24.55
2017-05-24T11:24:07.361Z,24.27
2017-05-24T11:25:07.259Z,24.22
2017-05-24T11:26:07.489Z,24.06
2017-05-24T11:27:07.306Z,24.22
2017-05-24T11:28:07.531Z,24.29
2017-05-24T11:29:07.612Z,24.37
2017-05-24T11:30:07.512Z,24.37
2017-05-24T11:31:07.460Z,24.04
2017-05-24T11:32:07.497Z,24.07
2017-05-24T11:33:07.133Z,24
2017-05-24T11:34:07.500Z,23.91
2017-05-24T11:35:07.494Z,23.72
2017-05-24T11:36:07.486Z,23.59
2017-05-24T11:37:06.788Z,23.33
2017-05-24T11:38:07.437Z,23.35
2017-05-24T11:39:07.381Z,23.32
2017-05-24T11:40:07.068Z,23.25
2017-05-24T11:41:07.397Z,23.27
2017-05-24T11:42:07.487Z,23.13
2017-05-24T11:43:07.342Z,23.21
2017-05-24T11:44:07.340Z,23.27
2017-05-24T11:45:07.006Z,23.38
2017-05-24T11:46:07.415Z,23.45
2017-05-24T11:47:07.304Z,23.7
2017-05-24T11:48:07.367Z,23.78
2017-05-24T11:49:07.292Z,23.77
2017-05-24T11:50:07.301Z,23.87
2017-05-24T11:51:07.259Z,23.85
2017-05-24T11:52:07.256Z,23.97
2017-05-24T11:53:06.913Z,24.09
2017-05-24T11:54:07.219Z,24.27
2017-05-24T11:55:07.229Z,24.36
2017-05-24T11:56:06.894Z,24.34
2017-05-24T11:57:06.883Z,24.29
2017-05-24T11:58:06.875Z,24.33
2017-05-24T11:59:06.860Z,24.58
2017-05-24T12:00:07.173Z,24.55
2017-05-24T12:01:07.159Z,24.77
2017-05-24T12:02:06.547Z,24.78
2017-05-24T12:03:07.162Z,24.75
2017-05-24T12:04:06.807Z,24.75
2017-05-24T12:05:07.118Z,24.84
2017-05-24T12:06:06.796Z,24.75
2017-05-24T12:07:06.793Z,24.58
2017-05-24T12:08:06.782Z,24.58
2017-05-24T12:09:06.876Z,24.47
2017-05-24T12:10:06.750Z,24.27
2017-05-24T12:11:07.064Z,24.14
2017-05-24T12:12:07.057Z,23.99
2017-05-24T12:13:06.422Z,23.92
2017-05-24T12:14:07.041Z,23.97
2017-05-24T12:15:06.704Z,23.96
2017-05-24T12:16:06.402Z,23.78
2017-05-24T12:17:06.800Z,23.88
2017-05-24T12:18:06.688Z,23.92
2017-05-24T12:19:06.987Z,24.06
2017-05-24T12:20:06.988Z,24.19
2017-05-24T12:21:07.032Z,24.27
2017-05-24T12:22:06.966Z,24.4
2017-05-24T12:23:06.634Z,24.4
2017-05-24T12:24:06.929Z,24.44
2017-05-24T12:25:06.605Z,24.4
2017-05-24T12:26:06.592Z,24.34
2017-05-24T12:27:06.958Z,24.37
2017-05-24T12:28:06.573Z,24.54
2017-05-24T12:29:06.881Z,24.7
2017-05-24T12:30:06.564Z,24.85
2017-05-24T12:31:06.877Z,25.12
2017-05-24T12:32:06.536Z,25.37
2017-05-24T12:33:06.841Z,25.56
2017-05-24T12:34:06.877Z,25.58
2017-05-24T12:35:06.811Z,25.54
2017-05-24T12:36:06.500Z,25.4
2017-05-24T12:37:06.193Z,25.32
2017-05-24T12:38:06.783Z,25.14
2017-05-24T12:39:06.163Z,25.19
2017-05-24T12:40:06.472Z,25.08
2017-05-24T12:41:06.461Z,25.1
2017-05-24T12:42:06.448Z,25.1
2017-05-24T12:43:06.459Z,25.03
2017-05-24T12:44:06.733Z,24.89
2017-05-24T12:45:06.721Z,24.75
2017-05-24T12:46:06.731Z,24.55
2017-05-24T12:47:06.091Z,24.47
2017-05-24T12:48:06.688Z,24.34
2017-05-24T12:49:06.384Z,24.29
2017-05-24T12:50:06.070Z,23.91
2017-05-24T12:51:06.393Z,23.92
2017-05-24T12:52:06.348Z,23.82
2017-05-24T12:53:06.338Z,23.77
2017-05-24T12:54:06.331Z,23.78
2017-05-24T12:55:06.330Z,23.73